sensor_id;sensor_type;location;lat;lon;timestamp;P1;durP1;ratioP1;P2;durP2;ratioP2
54929;SDS011;40833;53.238;6.576;2023-02-10T00:01:28;30.60;;;6.63;;
54929;SDS011;40833;53.238;6.576;2023-02-10T00:03:54;35.63;;;6.30;;
54929;SDS011;40833;53.238;6.576;2023-02-10T00:06:21;41.27;;;7.40;;
54929;SDS011;40833;53.238;6.576;2023-02-10T00:08:59;36.20;;;6.87;;
54929;SDS011;40833;53.238;6.576;2023-02-10T00:11:25;33.43;;;7.43;;
54929;SDS011;40833;53.238;6.576;2023-02-10T00:14:11;38.93;;;8.03;;
54929;SDS011;40833;53.238;6.576;2023-02-10T00:16:37;36.27;;;7.23;;
54929;SDS011;40833;53.238;6.576;2023-02-10T00:19:03;50.23;;;7.47;;
54929;SDS011;40833;53.238;6.576;2023-02-10T00:21:29;39.43;;;7.37;;
54929;SDS011;40833;53.238;6.576;2023-02-10T00:23:55;52.03;;;8.90;;
54929;SDS011;40833;53.238;6.576;2023-02-10T00:26:21;36.43;;;7.30;;
54929;SDS011;40833;53.238;6.576;2023-02-10T00:28:47;41.73;;;7.33;;
54929;SDS011;40833;53.238;6.576;2023-02-10T00:31:13;29.83;;;6.53;;
54929;SDS011;40833;53.238;6.576;2023-02-10T00:33:43;44.57;;;7.80;;
54929;SDS011;40833;53.238;6.576;2023-02-10T00:36:10;35.60;;;7.87;;
54929;SDS011;40833;53.238;6.576;2023-02-10T00:38:37;33.67;;;7.70;;
54929;SDS011;40833;53.238;6.576;2023-02-10T00:41:11;38.50;;;7.87;;
54929;SDS011;40833;53.238;6.576;2023-02-10T00:43:39;48.30;;;8.43;;
54929;SDS011;40833;53.238;6.576;2023-02-10T00:46:05;41.90;;;7.10;;
54929;SDS011;40833;53.238;6.576;2023-02-10T00:48:31;38.70;;;6.77;;
54929;SDS011;40833;53.238;6.576;2023-02-10T00:50:57;42.70;;;8.47;;
54929;SDS011;40833;53.238;6.576;2023-02-10T00:53:23;48.80;;;7.60;;
54929;SDS011;40833;53.238;6.576;2023-02-10T00:55:49;44.93;;;7.80;;
54929;SDS011;40833;53.238;6.576;2023-02-10T00:58:15;38.80;;;7.67;;
54929;SDS011;40833;53.238;6.576;2023-02-10T01:00:40;34.07;;;7.23;;
54929;SDS011;40833;53.238;6.576;2023-02-10T01:03:06;38.00;;;8.57;;
54929;SDS011;40833;53.238;6.576;2023-02-10T01:05:32;31.33;;;7.73;;
54929;SDS011;40833;53.238;6.576;2023-02-10T01:07:57;40.43;;;8.23;;
54929;SDS011;40833;53.238;6.576;2023-02-10T01:10:23;35.30;;;6.97;;
54929;SDS011;40833;53.238;6.576;2023-02-10T01:12:49;33.53;;;9.07;;
54929;SDS011;40833;53.238;6.576;2023-02-10T01:15:14;43.93;;;7.67;;
54929;SDS011;40833;53.238;6.576;2023-02-10T01:17:40;30.87;;;8.37;;
54929;SDS011;40833;53.238;6.576;2023-02-10T01:20:06;29.90;;;8.37;;
54929;SDS011;40833;53.238;6.576;2023-02-10T01:22:32;39.37;;;7.97;;
54929;SDS011;40833;53.238;6.576;2023-02-10T01:24:58;25.67;;;7.00;;
54929;SDS011;40833;53.238;6.576;2023-02-10T01:27:24;41.77;;;7.70;;
54929;SDS011;40833;53.238;6.576;2023-02-10T01:29:50;35.37;;;8.07;;
54929;SDS011;40833;53.238;6.576;2023-02-10T01:32:16;36.10;;;8.63;;
54929;SDS011;40833;53.238;6.576;2023-02-10T01:34:41;45.93;;;8.43;;
54929;SDS011;40833;53.238;6.576;2023-02-10T01:37:07;34.37;;;7.17;;
54929;SDS011;40833;53.238;6.576;2023-02-10T01:39:33;40.27;;;7.50;;
54929;SDS011;40833;53.238;6.576;2023-02-10T01:41:59;29.47;;;6.80;;
54929;SDS011;40833;53.238;6.576;2023-02-10T01:46:50;27.87;;;7.73;;
54929;SDS011;40833;53.238;6.576;2023-02-10T01:49:21;34.37;;;8.90;;
54929;SDS011;40833;53.238;6.576;2023-02-10T01:51:52;27.85;;;7.63;;
54929;SDS011;40833;53.238;6.576;2023-02-10T01:54:22;36.63;;;7.70;;
54929;SDS011;40833;53.238;6.576;2023-02-10T01:56:54;30.37;;;6.93;;
54929;SDS011;40833;53.238;6.576;2023-02-10T01:59:20;37.87;;;6.30;;
54929;SDS011;40833;53.238;6.576;2023-02-10T02:01:47;44.90;;;7.63;;
54929;SDS011;40833;53.238;6.576;2023-02-10T02:04:15;27.23;;;7.23;;
54929;SDS011;40833;53.238;6.576;2023-02-10T02:06:41;35.57;;;7.23;;
54929;SDS011;40833;53.238;6.576;2023-02-10T02:09:07;42.70;;;7.60;;
54929;SDS011;40833;53.238;6.576;2023-02-10T02:14:41;35.70;;;6.07;;
54929;SDS011;40833;53.238;6.576;2023-02-10T02:17:35;34.57;;;6.27;;
54929;SDS011;40833;53.238;6.576;2023-02-10T02:23:14;31.93;;;6.73;;
54929;SDS011;40833;53.238;6.576;2023-02-10T02:28:32;30.77;;;7.07;;
54929;SDS011;40833;53.238;6.576;2023-02-10T02:34:24;29.08;;;6.95;;
54929;SDS011;40833;53.238;6.576;2023-02-10T02:37:01;37.37;;;7.43;;
54929;SDS011;40833;53.238;6.576;2023-02-10T02:39:32;40.57;;;9.33;;
54929;SDS011;40833;53.238;6.576;2023-02-10T02:41:59;31.80;;;7.23;;
54929;SDS011;40833;53.238;6.576;2023-02-10T02:44:39;37.57;;;7.70;;
54929;SDS011;40833;53.238;6.576;2023-02-10T03:00:27;29.97;;;7.30;;
54929;SDS011;40833;53.238;6.576;2023-02-10T03:02:57;29.17;;;6.27;;
54929;SDS011;40833;53.238;6.576;2023-02-10T03:05:27;39.30;;;8.00;;
54929;SDS011;40833;53.238;6.576;2023-02-10T03:07:55;31.50;;;7.00;;
54929;SDS011;40833;53.238;6.576;2023-02-10T03:10:22;29.30;;;6.93;;
54929;SDS011;40833;53.238;6.576;2023-02-10T03:12:48;34.40;;;7.43;;
54929;SDS011;40833;53.238;6.576;2023-02-10T03:15:13;36.63;;;7.33;;
54929;SDS011;40833;53.238;6.576;2023-02-10T03:17:39;33.67;;;8.07;;
54929;SDS011;40833;53.238;6.576;2023-02-10T03:20:06;40.03;;;7.73;;
54929;SDS011;40833;53.238;6.576;2023-02-10T03:22:32;41.27;;;8.53;;
54929;SDS011;40833;53.238;6.576;2023-02-10T03:24:58;37.33;;;8.00;;
54929;SDS011;40833;53.238;6.576;2023-02-10T03:27:23;34.87;;;8.00;;
54929;SDS011;40833;53.238;6.576;2023-02-10T03:29:49;39.83;;;8.53;;
54929;SDS011;40833;53.238;6.576;2023-02-10T03:32:17;34.17;;;7.73;;
54929;SDS011;40833;53.238;6.576;2023-02-10T03:34:44;39.97;;;8.53;;
54929;SDS011;40833;53.238;6.576;2023-02-10T03:37:10;33.60;;;7.60;;
54929;SDS011;40833;53.238;6.576;2023-02-10T03:39:36;47.03;;;7.60;;
54929;SDS011;40833;53.238;6.576;2023-02-10T03:42:02;38.27;;;8.33;;
54929;SDS011;40833;53.238;6.576;2023-02-10T03:44:31;38.53;;;8.00;;
54929;SDS011;40833;53.238;6.576;2023-02-10T03:46:57;28.97;;;6.87;;
54929;SDS011;40833;53.238;6.576;2023-02-10T03:49:22;32.23;;;6.90;;
54929;SDS011;40833;53.238;6.576;2023-02-10T03:51:48;37.63;;;7.17;;
54929;SDS011;40833;53.238;6.576;2023-02-10T03:54:14;31.07;;;6.40;;
54929;SDS011;40833;53.238;6.576;2023-02-10T03:56:40;37.70;;;7.67;;
54929;SDS011;40833;53.238;6.576;2023-02-10T03:59:05;35.03;;;8.00;;
54929;SDS011;40833;53.238;6.576;2023-02-10T04:01:31;34.03;;;7.03;;
54929;SDS011;40833;53.238;6.576;2023-02-10T04:03:58;36.67;;;7.00;;
54929;SDS011;40833;53.238;6.576;2023-02-10T04:06:24;31.93;;;7.37;;
54929;SDS011;40833;53.238;6.576;2023-02-10T04:08:50;33.87;;;7.10;;
54929;SDS011;40833;53.238;6.576;2023-02-10T04:11:16;34.00;;;7.67;;
54929;SDS011;40833;53.238;6.576;2023-02-10T04:13:42;31.47;;;7.20;;
54929;SDS011;40833;53.238;6.576;2023-02-10T04:16:11;34.47;;;7.33;;
54929;SDS011;40833;53.238;6.576;2023-02-10T04:18:39;32.27;;;6.63;;
54929;SDS011;40833;53.238;6.576;2023-02-10T04:21:06;39.73;;;7.40;;
54929;SDS011;40833;53.238;6.576;2023-02-10T04:23:33;40.47;;;7.43;;
54929;SDS011;40833;53.238;6.576;2023-02-10T04:25:59;31.97;;;7.67;;
54929;SDS011;40833;53.238;6.576;2023-02-10T04:28:26;32.83;;;8.07;;
54929;SDS011;40833;53.238;6.576;2023-02-10T04:30:55;33.37;;;7.97;;
54929;SDS011;40833;53.238;6.576;2023-02-10T04:33:23;34.73;;;7.50;;
54929;SDS011;40833;53.238;6.576;2023-02-10T04:35:52;47.57;;;8.47;;
54929;SDS011;40833;53.238;6.576;2023-02-10T04:38:19;26.37;;;7.20;;
54929;SDS011;40833;53.238;6.576;2023-02-10T04:40:45;32.07;;;6.33;;
54929;SDS011;40833;53.238;6.576;2023-02-10T04:43:11;43.33;;;6.97;;
54929;SDS011;40833;53.238;6.576;2023-02-10T04:45:38;31.13;;;7.60;;
54929;SDS011;40833;53.238;6.576;2023-02-10T04:48:04;37.57;;;7.33;;
54929;SDS011;40833;53.238;6.576;2023-02-10T04:50:30;42.23;;;7.90;;
54929;SDS011;40833;53.238;6.576;2023-02-10T04:52:56;43.37;;;7.90;;
54929;SDS011;40833;53.238;6.576;2023-02-10T04:55:22;37.23;;;9.23;;
54929;SDS011;40833;53.238;6.576;2023-02-10T04:57:48;35.63;;;7.03;;
54929;SDS011;40833;53.238;6.576;2023-02-10T05:00:14;45.57;;;8.73;;
54929;SDS011;40833;53.238;6.576;2023-02-10T05:02:40;37.40;;;7.43;;
54929;SDS011;40833;53.238;6.576;2023-02-10T05:05:06;36.53;;;7.53;;
54929;SDS011;40833;53.238;6.576;2023-02-10T05:07:32;40.17;;;7.00;;
54929;SDS011;40833;53.238;6.576;2023-02-10T05:09:57;43.03;;;7.43;;
54929;SDS011;40833;53.238;6.576;2023-02-10T05:12:23;30.73;;;7.27;;
54929;SDS011;40833;53.238;6.576;2023-02-10T05:14:49;44.37;;;7.80;;
54929;SDS011;40833;53.238;6.576;2023-02-10T05:17:14;31.73;;;7.77;;
54929;SDS011;40833;53.238;6.576;2023-02-10T05:19:40;43.83;;;8.60;;
54929;SDS011;40833;53.238;6.576;2023-02-10T05:22:06;37.60;;;7.80;;
54929;SDS011;40833;53.238;6.576;2023-02-10T05:24:31;35.87;;;8.17;;
54929;SDS011;40833;53.238;6.576;2023-02-10T05:26:57;35.33;;;7.80;;
54929;SDS011;40833;53.238;6.576;2023-02-10T05:29:23;37.03;;;8.00;;
54929;SDS011;40833;53.238;6.576;2023-02-10T05:31:48;38.00;;;8.77;;
54929;SDS011;40833;53.238;6.576;2023-02-10T05:34:14;40.57;;;8.20;;
54929;SDS011;40833;53.238;6.576;2023-02-10T05:36:40;37.47;;;7.93;;
54929;SDS011;40833;53.238;6.576;2023-02-10T05:39:08;32.50;;;8.73;;
54929;SDS011;40833;53.238;6.576;2023-02-10T05:41:49;26.70;;;7.67;;
54929;SDS011;40833;53.238;6.576;2023-02-10T05:44:19;46.67;;;8.40;;
54929;SDS011;40833;53.238;6.576;2023-02-10T05:46:45;34.40;;;8.50;;
54929;SDS011;40833;53.238;6.576;2023-02-10T05:49:11;42.83;;;9.50;;
54929;SDS011;40833;53.238;6.576;2023-02-10T05:51:37;37.27;;;7.80;;
54929;SDS011;40833;53.238;6.576;2023-02-10T05:54:03;26.67;;;7.63;;
54929;SDS011;40833;53.238;6.576;2023-02-10T05:56:28;41.97;;;9.67;;
54929;SDS011;40833;53.238;6.576;2023-02-10T05:58:54;34.87;;;9.17;;
54929;SDS011;40833;53.238;6.576;2023-02-10T06:01:20;40.80;;;9.30;;
54929;SDS011;40833;53.238;6.576;2023-02-10T06:03:46;45.73;;;9.23;;
54929;SDS011;40833;53.238;6.576;2023-02-10T06:06:12;34.27;;;8.17;;
54929;SDS011;40833;53.238;6.576;2023-02-10T06:08:38;37.63;;;8.97;;
54929;SDS011;40833;53.238;6.576;2023-02-10T06:11:03;34.10;;;8.33;;
54929;SDS011;40833;53.238;6.576;2023-02-10T06:13:29;33.57;;;9.23;;
54929;SDS011;40833;53.238;6.576;2023-02-10T06:15:55;29.80;;;8.70;;
54929;SDS011;40833;53.238;6.576;2023-02-10T06:18:21;41.00;;;9.93;;
54929;SDS011;40833;53.238;6.576;2023-02-10T06:20:47;43.13;;;9.80;;
54929;SDS011;40833;53.238;6.576;2023-02-10T06:23:13;31.53;;;8.70;;
54929;SDS011;40833;53.238;6.576;2023-02-10T06:25:39;30.00;;;9.10;;
54929;SDS011;40833;53.238;6.576;2023-02-10T06:28:05;31.57;;;8.93;;
54929;SDS011;40833;53.238;6.576;2023-02-10T06:30:30;38.93;;;8.70;;
54929;SDS011;40833;53.238;6.576;2023-02-10T06:32:56;34.63;;;9.60;;
54929;SDS011;40833;53.238;6.576;2023-02-10T06:35:22;36.77;;;9.93;;
54929;SDS011;40833;53.238;6.576;2023-02-10T06:37:48;34.50;;;9.33;;
54929;SDS011;40833;53.238;6.576;2023-02-10T06:40:14;39.23;;;9.47;;
54929;SDS011;40833;53.238;6.576;2023-02-10T06:42:40;44.03;;;9.93;;
54929;SDS011;40833;53.238;6.576;2023-02-10T06:45:06;33.23;;;8.87;;
54929;SDS011;40833;53.238;6.576;2023-02-10T06:47:33;37.47;;;10.03;;
54929;SDS011;40833;53.238;6.576;2023-02-10T06:50:00;32.10;;;9.37;;
54929;SDS011;40833;53.238;6.576;2023-02-10T06:52:26;31.13;;;9.50;;
54929;SDS011;40833;53.238;6.576;2023-02-10T06:54:52;28.30;;;9.10;;
54929;SDS011;40833;53.238;6.576;2023-02-10T06:57:18;40.17;;;10.93;;
54929;SDS011;40833;53.238;6.576;2023-02-10T06:59:44;36.43;;;10.00;;
54929;SDS011;40833;53.238;6.576;2023-02-10T07:02:10;38.60;;;10.47;;
54929;SDS011;40833;53.238;6.576;2023-02-10T07:04:37;41.30;;;11.67;;
54929;SDS011;40833;53.238;6.576;2023-02-10T07:07:03;33.73;;;9.63;;
54929;SDS011;40833;53.238;6.576;2023-02-10T07:09:29;46.50;;;9.93;;
54929;SDS011;40833;53.238;6.576;2023-02-10T07:11:56;38.20;;;10.07;;
54929;SDS011;40833;53.238;6.576;2023-02-10T07:14:22;32.40;;;10.70;;
54929;SDS011;40833;53.238;6.576;2023-02-10T07:16:48;32.97;;;10.20;;
54929;SDS011;40833;53.238;6.576;2023-02-10T07:19:14;32.17;;;9.73;;
54929;SDS011;40833;53.238;6.576;2023-02-10T07:21:39;41.53;;;10.30;;
54929;SDS011;40833;53.238;6.576;2023-02-10T07:24:05;45.60;;;10.80;;
54929;SDS011;40833;53.238;6.576;2023-02-10T07:26:31;37.77;;;9.93;;
54929;SDS011;40833;53.238;6.576;2023-02-10T07:28:57;32.67;;;10.90;;
54929;SDS011;40833;53.238;6.576;2023-02-10T07:31:23;37.27;;;11.17;;
54929;SDS011;40833;53.238;6.576;2023-02-10T07:33:49;41.50;;;9.77;;
54929;SDS011;40833;53.238;6.576;2023-02-10T07:36:14;36.40;;;11.07;;
54929;SDS011;40833;53.238;6.576;2023-02-10T07:38:40;37.23;;;10.77;;
54929;SDS011;40833;53.238;6.576;2023-02-10T07:41:06;42.17;;;10.10;;
54929;SDS011;40833;53.238;6.576;2023-02-10T07:43:32;36.93;;;10.93;;
54929;SDS011;40833;53.238;6.576;2023-02-10T07:45:59;37.40;;;10.00;;
54929;SDS011;40833;53.238;6.576;2023-02-10T07:48:24;34.10;;;9.60;;
54929;SDS011;40833;53.238;6.576;2023-02-10T07:50:50;39.20;;;10.83;;
54929;SDS011;40833;53.238;6.576;2023-02-10T07:53:20;38.00;;;11.17;;
54929;SDS011;40833;53.238;6.576;2023-02-10T07:55:46;29.73;;;9.67;;
54929;SDS011;40833;53.238;6.576;2023-02-10T07:58:12;39.87;;;10.87;;
54929;SDS011;40833;53.238;6.576;2023-02-10T08:00:38;41.20;;;10.77;;
54929;SDS011;40833;53.238;6.576;2023-02-10T08:03:04;36.60;;;9.60;;
54929;SDS011;40833;53.238;6.576;2023-02-10T08:05:30;41.33;;;10.50;;
54929;SDS011;40833;53.238;6.576;2023-02-10T08:07:56;40.90;;;10.23;;
54929;SDS011;40833;53.238;6.576;2023-02-10T08:10:22;42.43;;;10.03;;
54929;SDS011;40833;53.238;6.576;2023-02-10T08:12:48;29.03;;;10.20;;
54929;SDS011;40833;53.238;6.576;2023-02-10T08:15:13;36.90;;;10.97;;
54929;SDS011;40833;53.238;6.576;2023-02-10T08:17:42;39.77;;;11.73;;
54929;SDS011;40833;53.238;6.576;2023-02-10T08:20:09;39.03;;;10.27;;
54929;SDS011;40833;53.238;6.576;2023-02-10T08:22:35;30.53;;;9.73;;
54929;SDS011;40833;53.238;6.576;2023-02-10T08:25:01;36.73;;;11.60;;
54929;SDS011;40833;53.238;6.576;2023-02-10T08:27:27;32.67;;;10.63;;
54929;SDS011;40833;53.238;6.576;2023-02-10T08:29:54;28.20;;;11.00;;
54929;SDS011;40833;53.238;6.576;2023-02-10T08:32:20;34.53;;;12.33;;
54929;SDS011;40833;53.238;6.576;2023-02-10T08:34:46;34.67;;;11.60;;
54929;SDS011;40833;53.238;6.576;2023-02-10T08:37:13;34.83;;;11.57;;
54929;SDS011;40833;53.238;6.576;2023-02-10T08:39:39;38.23;;;11.43;;
54929;SDS011;40833;53.238;6.576;2023-02-10T08:42:04;33.63;;;10.20;;
54929;SDS011;40833;53.238;6.576;2023-02-10T08:44:30;35.93;;;10.03;;
54929;SDS011;40833;53.238;6.576;2023-02-10T08:46:56;30.20;;;9.57;;
54929;SDS011;40833;53.238;6.576;2023-02-10T08:49:21;38.87;;;11.33;;
54929;SDS011;40833;53.238;6.576;2023-02-10T08:51:49;32.23;;;9.23;;
54929;SDS011;40833;53.238;6.576;2023-02-10T08:54:16;35.20;;;9.30;;
54929;SDS011;40833;53.238;6.576;2023-02-10T08:56:41;36.13;;;9.47;;
54929;SDS011;40833;53.238;6.576;2023-02-10T08:59:07;36.07;;;10.37;;
54929;SDS011;40833;53.238;6.576;2023-02-10T09:01:33;21.87;;;8.97;;
54929;SDS011;40833;53.238;6.576;2023-02-10T09:03:59;31.60;;;9.63;;
54929;SDS011;40833;53.238;6.576;2023-02-10T09:06:26;44.43;;;9.90;;
54929;SDS011;40833;53.238;6.576;2023-02-10T09:08:53;28.13;;;10.20;;
54929;SDS011;40833;53.238;6.576;2023-02-10T09:11:20;27.87;;;9.73;;
54929;SDS011;40833;53.238;6.576;2023-02-10T09:13:48;34.53;;;9.77;;
54929;SDS011;40833;53.238;6.576;2023-02-10T09:16:15;24.47;;;9.00;;
54929;SDS011;40833;53.238;6.576;2023-02-10T09:18:41;41.13;;;10.73;;
54929;SDS011;40833;53.238;6.576;2023-02-10T09:21:06;32.70;;;9.97;;
54929;SDS011;40833;53.238;6.576;2023-02-10T09:23:33;31.27;;;9.77;;
54929;SDS011;40833;53.238;6.576;2023-02-10T09:25:59;29.90;;;9.33;;
54929;SDS011;40833;53.238;6.576;2023-02-10T09:28:25;27.57;;;9.50;;
54929;SDS011;40833;53.238;6.576;2023-02-10T09:30:52;24.37;;;9.40;;
54929;SDS011;40833;53.238;6.576;2023-02-10T09:33:18;36.43;;;10.40;;
54929;SDS011;40833;53.238;6.576;2023-02-10T09:35:44;23.80;;;10.20;;
54929;SDS011;40833;53.238;6.576;2023-02-10T09:38:10;22.87;;;9.60;;
54929;SDS011;40833;53.238;6.576;2023-02-10T09:40:48;25.70;;;9.83;;
54929;SDS011;40833;53.238;6.576;2023-02-10T09:58:00;35.47;;;10.47;;
54929;SDS011;40833;53.238;6.576;2023-02-10T10:00:33;28.60;;;10.40;;
54929;SDS011;40833;53.238;6.576;2023-02-10T10:03:02;18.67;;;8.80;;
54929;SDS011;40833;53.238;6.576;2023-02-10T10:05:39;31.17;;;9.73;;
54929;SDS011;40833;53.238;6.576;2023-02-10T10:13:48;35.93;;;10.47;;
54929;SDS011;40833;53.238;6.576;2023-02-10T10:30:17;35.83;;;10.23;;
54929;SDS011;40833;53.238;6.576;2023-02-10T10:32:46;29.73;;;9.20;;
54929;SDS011;40833;53.238;6.576;2023-02-10T10:35:18;35.58;;;10.52;;
54929;SDS011;40833;53.238;6.576;2023-02-10T10:37:47;25.03;;;8.97;;
54929;SDS011;40833;53.238;6.576;2023-02-10T10:40:18;36.10;;;9.10;;
54929;SDS011;40833;53.238;6.576;2023-02-10T10:42:49;30.07;;;8.70;;
54929;SDS011;40833;53.238;6.576;2023-02-10T10:45:22;27.47;;;9.60;;
54929;SDS011;40833;53.238;6.576;2023-02-10T10:48:01;27.93;;;8.83;;
54929;SDS011;40833;53.238;6.576;2023-02-10T10:50:33;29.13;;;9.13;;
54929;SDS011;40833;53.238;6.576;2023-02-10T10:53:01;24.10;;;9.13;;
54929;SDS011;40833;53.238;6.576;2023-02-10T10:58:20;33.23;;;11.73;;
54929;SDS011;40833;53.238;6.576;2023-02-10T11:00:56;26.03;;;9.97;;
54929;SDS011;40833;53.238;6.576;2023-02-10T11:03:23;30.43;;;9.63;;
54929;SDS011;40833;53.238;6.576;2023-02-10T11:08:52;37.50;;;10.27;;
54929;SDS011;40833;53.238;6.576;2023-02-10T11:11:29;29.70;;;9.60;;
54929;SDS011;40833;53.238;6.576;2023-02-10T11:14:15;24.77;;;8.73;;
54929;SDS011;40833;53.238;6.576;2023-02-10T11:16:49;30.00;;;10.03;;
54929;SDS011;40833;53.238;6.576;2023-02-10T11:19:32;28.00;;;9.70;;
54929;SDS011;40833;53.238;6.576;2023-02-10T11:21:59;34.07;;;9.77;;
54929;SDS011;40833;53.238;6.576;2023-02-10T11:24:26;33.77;;;9.83;;
54929;SDS011;40833;53.238;6.576;2023-02-10T11:27:01;31.70;;;9.80;;
54929;SDS011;40833;53.238;6.576;2023-02-10T11:29:32;25.77;;;9.17;;
54929;SDS011;40833;53.238;6.576;2023-02-10T11:32:00;34.43;;;9.97;;
54929;SDS011;40833;53.238;6.576;2023-02-10T11:34:28;24.33;;;8.97;;
54929;SDS011;40833;53.238;6.576;2023-02-10T11:36:57;29.43;;;9.77;;
54929;SDS011;40833;53.238;6.576;2023-02-10T11:39:34;31.30;;;9.00;;
54929;SDS011;40833;53.238;6.576;2023-02-10T11:42:07;28.53;;;8.97;;
54929;SDS011;40833;53.238;6.576;2023-02-10T11:44:35;27.85;;;7.80;;
54929;SDS011;40833;53.238;6.576;2023-02-10T11:47:01;33.73;;;7.47;;
54929;SDS011;40833;53.238;6.576;2023-02-10T11:49:45;30.23;;;8.17;;
54929;SDS011;40833;53.238;6.576;2023-02-10T11:52:14;30.97;;;7.90;;
54929;SDS011;40833;53.238;6.576;2023-02-10T11:54:41;20.30;;;6.73;;
54929;SDS011;40833;53.238;6.576;2023-02-10T12:11:23;15.90;;;5.03;;
54929;SDS011;40833;53.238;6.576;2023-02-10T12:14:02;13.03;;;4.63;;
54929;SDS011;40833;53.238;6.576;2023-02-10T12:17:05;23.27;;;4.77;;
54929;SDS011;40833;53.238;6.576;2023-02-10T12:19:48;22.20;;;4.97;;
54929;SDS011;40833;53.238;6.576;2023-02-10T12:25:22;18.53;;;4.50;;
54929;SDS011;40833;53.238;6.576;2023-02-10T12:30:32;19.63;;;4.47;;
54929;SDS011;40833;53.238;6.576;2023-02-10T12:39:06;20.13;;;3.70;;
54929;SDS011;40833;53.238;6.576;2023-02-10T12:44:45;20.47;;;3.63;;
54929;SDS011;40833;53.238;6.576;2023-02-10T12:52:39;16.07;;;2.60;;
54929;SDS011;40833;53.238;6.576;2023-02-10T12:55:19;19.37;;;3.40;;
54929;SDS011;40833;53.238;6.576;2023-02-10T12:57:56;15.97;;;3.10;;
54929;SDS011;40833;53.238;6.576;2023-02-10T13:00:32;19.83;;;4.20;;
54929;SDS011;40833;53.238;6.576;2023-02-10T13:03:09;20.23;;;3.83;;
54929;SDS011;40833;53.238;6.576;2023-02-10T13:05:50;20.55;;;3.42;;
54929;SDS011;40833;53.238;6.576;2023-02-10T13:08:47;16.50;;;2.80;;
54929;SDS011;40833;53.238;6.576;2023-02-10T13:11:22;17.20;;;3.90;;
54929;SDS011;40833;53.238;6.576;2023-02-10T13:13:50;20.63;;;3.23;;
54929;SDS011;40833;53.238;6.576;2023-02-10T13:16:19;21.13;;;3.30;;
54929;SDS011;40833;53.238;6.576;2023-02-10T13:24:23;20.77;;;3.47;;
54929;SDS011;40833;53.238;6.576;2023-02-10T13:29:54;15.90;;;3.00;;
54929;SDS011;40833;53.238;6.576;2023-02-10T13:35:13;19.63;;;3.50;;
54929;SDS011;40833;53.238;6.576;2023-02-10T13:37:42;24.67;;;3.67;;
54929;SDS011;40833;53.238;6.576;2023-02-10T13:42:52;23.33;;;4.70;;
54929;SDS011;40833;53.238;6.576;2023-02-10T13:45:25;15.40;;;3.07;;
54929;SDS011;40833;53.238;6.576;2023-02-10T13:47:57;11.30;;;2.60;;
54929;SDS011;40833;53.238;6.576;2023-02-10T13:50:27;23.43;;;3.70;;
54929;SDS011;40833;53.238;6.576;2023-02-10T13:53:04;15.37;;;2.90;;
54929;SDS011;40833;53.238;6.576;2023-02-10T13:55:50;19.03;;;3.73;;
54929;SDS011;40833;53.238;6.576;2023-02-10T13:58:17;14.10;;;2.80;;
54929;SDS011;40833;53.238;6.576;2023-02-10T14:00:52;13.57;;;3.00;;
54929;SDS011;40833;53.238;6.576;2023-02-10T14:03:20;14.33;;;2.40;;
54929;SDS011;40833;53.238;6.576;2023-02-10T14:06:00;11.07;;;2.47;;
54929;SDS011;40833;53.238;6.576;2023-02-10T14:10:59;15.23;;;2.67;;
54929;SDS011;40833;53.238;6.576;2023-02-10T14:13:32;14.50;;;3.03;;
54929;SDS011;40833;53.238;6.576;2023-02-10T14:16:04;19.67;;;3.10;;
54929;SDS011;40833;53.238;6.576;2023-02-10T14:18:36;17.90;;;2.80;;
54929;SDS011;40833;53.238;6.576;2023-02-10T14:21:04;15.47;;;3.33;;
54929;SDS011;40833;53.238;6.576;2023-02-10T14:23:37;16.03;;;3.43;;
54929;SDS011;40833;53.238;6.576;2023-02-10T14:26:20;14.10;;;2.87;;
54929;SDS011;40833;53.238;6.576;2023-02-10T14:28:57;16.83;;;2.80;;
54929;SDS011;40833;53.238;6.576;2023-02-10T14:31:28;14.97;;;3.23;;
54929;SDS011;40833;53.238;6.576;2023-02-10T14:34:02;15.27;;;3.50;;
54929;SDS011;40833;53.238;6.576;2023-02-10T14:36:29;15.03;;;3.13;;
54929;SDS011;40833;53.238;6.576;2023-02-10T14:38:56;18.23;;;4.83;;
54929;SDS011;40833;53.238;6.576;2023-02-10T14:41:23;12.00;;;3.47;;
54929;SDS011;40833;53.238;6.576;2023-02-10T14:43:51;17.23;;;3.47;;
54929;SDS011;40833;53.238;6.576;2023-02-10T14:46:25;18.80;;;4.07;;
54929;SDS011;40833;53.238;6.576;2023-02-10T14:51:26;19.23;;;3.67;;
54929;SDS011;40833;53.238;6.576;2023-02-10T14:53:53;21.80;;;5.07;;
54929;SDS011;40833;53.238;6.576;2023-02-10T14:56:22;16.43;;;3.40;;
54929;SDS011;40833;53.238;6.576;2023-02-10T14:58:51;16.95;;;3.38;;
54929;SDS011;40833;53.238;6.576;2023-02-10T15:01:24;18.17;;;3.23;;
54929;SDS011;40833;53.238;6.576;2023-02-10T15:03:58;16.27;;;3.67;;
54929;SDS011;40833;53.238;6.576;2023-02-10T15:06:27;24.93;;;3.57;;
54929;SDS011;40833;53.238;6.576;2023-02-10T15:08:59;10.87;;;3.00;;
54929;SDS011;40833;53.238;6.576;2023-02-10T15:11:30;17.03;;;4.17;;
54929;SDS011;40833;53.238;6.576;2023-02-10T15:14:30;13.83;;;3.37;;
54929;SDS011;40833;53.238;6.576;2023-02-10T15:17:09;21.60;;;4.03;;
54929;SDS011;40833;53.238;6.576;2023-02-10T15:19:51;15.20;;;4.07;;
54929;SDS011;40833;53.238;6.576;2023-02-10T15:30:54;16.17;;;3.80;;
54929;SDS011;40833;53.238;6.576;2023-02-10T15:33:36;31.43;;;5.20;;
54929;SDS011;40833;53.238;6.576;2023-02-10T15:42:03;14.53;;;3.93;;
54929;SDS011;40833;53.238;6.576;2023-02-10T15:49:42;12.20;;;4.07;;
54929;SDS011;40833;53.238;6.576;2023-02-10T15:52:13;19.37;;;4.90;;
54929;SDS011;40833;53.238;6.576;2023-02-10T15:54:43;13.53;;;4.97;;
54929;SDS011;40833;53.238;6.576;2023-02-10T15:57:09;19.37;;;4.67;;
54929;SDS011;40833;53.238;6.576;2023-02-10T15:59:36;18.40;;;5.30;;
54929;SDS011;40833;53.238;6.576;2023-02-10T16:02:05;20.23;;;5.27;;
54929;SDS011;40833;53.238;6.576;2023-02-10T16:04:35;17.67;;;4.77;;
54929;SDS011;40833;53.238;6.576;2023-02-10T16:07:02;20.23;;;4.90;;
54929;SDS011;40833;53.238;6.576;2023-02-10T16:09:29;20.63;;;5.90;;
54929;SDS011;40833;53.238;6.576;2023-02-10T16:11:56;22.57;;;5.73;;
54929;SDS011;40833;53.238;6.576;2023-02-10T16:14:23;15.07;;;5.63;;
54929;SDS011;40833;53.238;6.576;2023-02-10T16:16:50;23.60;;;6.27;;
54929;SDS011;40833;53.238;6.576;2023-02-10T16:19:20;23.53;;;6.37;;
54929;SDS011;40833;53.238;6.576;2023-02-10T16:21:48;21.23;;;5.93;;
54929;SDS011;40833;53.238;6.576;2023-02-10T16:24:14;17.97;;;5.77;;
54929;SDS011;40833;53.238;6.576;2023-02-10T16:26:42;21.30;;;6.73;;
54929;SDS011;40833;53.238;6.576;2023-02-10T16:29:20;16.87;;;6.43;;
54929;SDS011;40833;53.238;6.576;2023-02-10T16:31:47;22.30;;;6.00;;
54929;SDS011;40833;53.238;6.576;2023-02-10T16:34:13;16.70;;;6.33;;
54929;SDS011;40833;53.238;6.576;2023-02-10T16:36:39;20.33;;;5.60;;
54929;SDS011;40833;53.238;6.576;2023-02-10T16:39:09;19.67;;;6.00;;
54929;SDS011;40833;53.238;6.576;2023-02-10T16:41:38;22.03;;;6.73;;
54929;SDS011;40833;53.238;6.576;2023-02-10T16:44:04;15.07;;;5.10;;
54929;SDS011;40833;53.238;6.576;2023-02-10T16:46:29;22.63;;;6.10;;
54929;SDS011;40833;53.238;6.576;2023-02-10T16:48:55;21.37;;;6.53;;
54929;SDS011;40833;53.238;6.576;2023-02-10T16:51:21;18.60;;;5.93;;
54929;SDS011;40833;53.238;6.576;2023-02-10T16:53:47;19.57;;;6.07;;
54929;SDS011;40833;53.238;6.576;2023-02-10T16:56:17;18.10;;;6.53;;
54929;SDS011;40833;53.238;6.576;2023-02-10T16:58:42;24.07;;;6.63;;
54929;SDS011;40833;53.238;6.576;2023-02-10T17:01:08;13.80;;;6.80;;
54929;SDS011;40833;53.238;6.576;2023-02-10T17:03:34;23.53;;;7.97;;